sensor_id;sensor_type;location;lat;lon;timestamp;P1;durP1;ratioP1;P2;durP2;ratioP2
15331;SDS011;7766;51.534;6.722;2023-06-22T00:00:25;10.18;;;7.55;;
15331;SDS011;7766;51.534;6.722;2023-06-22T00:01:26;8.35;;;7.45;;
15331;SDS011;7766;51.534;6.722;2023-06-22T00:02:27;7.18;;;5.90;;
15331;SDS011;7766;51.534;6.722;2023-06-22T00:03:28;8.27;;;7.00;;
15331;SDS011;7766;51.534;6.722;2023-06-22T00:04:29;8.05;;;6.88;;
15331;SDS011;7766;51.534;6.722;2023-06-22T00:05:30;8.70;;;7.72;;
15331;SDS011;7766;51.534;6.722;2023-06-22T00:06:31;10.00;;;7.55;;
15331;SDS011;7766;51.534;6.722;2023-06-22T00:07:32;9.88;;;6.88;;
15331;SDS011;7766;51.534;6.722;2023-06-22T00:08:33;6.85;;;6.13;;
15331;SDS011;7766;51.534;6.722;2023-06-22T00:09:34;11.60;;;8.50;;
15331;SDS011;7766;51.534;6.722;2023-06-22T00:10:35;13.07;;;7.30;;
15331;SDS011;7766;51.534;6.722;2023-06-22T00:11:36;8.57;;;7.47;;
15331;SDS011;7766;51.534;6.722;2023-06-22T00:12:37;11.85;;;8.18;;
15331;SDS011;7766;51.534;6.722;2023-06-22T00:13:39;10.50;;;7.82;;
15331;SDS011;7766;51.534;6.722;2023-06-22T00:14:40;9.13;;;7.80;;
15331;SDS011;7766;51.534;6.722;2023-06-22T00:15:41;8.82;;;7.32;;
15331;SDS011;7766;51.534;6.722;2023-06-22T00:16:42;11.00;;;7.30;;
15331;SDS011;7766;51.534;6.722;2023-06-22T00:17:43;8.52;;;6.57;;
15331;SDS011;7766;51.534;6.722;2023-06-22T00:18:45;11.63;;;7.82;;
15331;SDS011;7766;51.534;6.722;2023-06-22T00:19:47;12.07;;;7.68;;
15331;SDS011;7766;51.534;6.722;2023-06-22T00:20:56;8.88;;;7.97;;
15331;SDS011;7766;51.534;6.722;2023-06-22T00:21:58;8.07;;;6.35;;
15331;SDS011;7766;51.534;6.722;2023-06-22T00:23:00;10.32;;;8.13;;
15331;SDS011;7766;51.534;6.722;2023-06-22T00:24:01;7.97;;;6.57;;
15331;SDS011;7766;51.534;6.722;2023-06-22T00:25:02;8.20;;;6.95;;
15331;SDS011;7766;51.534;6.722;2023-06-22T00:26:03;9.18;;;7.13;;
15331;SDS011;7766;51.534;6.722;2023-06-22T00:27:04;8.52;;;7.72;;
15331;SDS011;7766;51.534;6.722;2023-06-22T00:28:06;8.35;;;7.45;;
15331;SDS011;7766;51.534;6.722;2023-06-22T00:29:07;9.65;;;8.27;;
15331;SDS011;7766;51.534;6.722;2023-06-22T00:30:08;8.38;;;6.93;;
15331;SDS011;7766;51.534;6.722;2023-06-22T00:31:10;7.78;;;6.97;;
15331;SDS011;7766;51.534;6.722;2023-06-22T00:32:11;41.17;;;25.45;;
15331;SDS011;7766;51.534;6.722;2023-06-22T00:33:12;23.50;;;15.50;;
15331;SDS011;7766;51.534;6.722;2023-06-22T00:34:13;22.45;;;15.32;;
15331;SDS011;7766;51.534;6.722;2023-06-22T00:35:14;21.50;;;16.02;;
15331;SDS011;7766;51.534;6.722;2023-06-22T00:36:15;11.80;;;8.98;;
15331;SDS011;7766;51.534;6.722;2023-06-22T00:37:19;10.77;;;8.43;;
15331;SDS011;7766;51.534;6.722;2023-06-22T00:38:22;8.80;;;7.88;;
15331;SDS011;7766;51.534;6.722;2023-06-22T00:39:23;9.52;;;7.75;;
15331;SDS011;7766;51.534;6.722;2023-06-22T00:40:24;9.38;;;8.23;;
15331;SDS011;7766;51.534;6.722;2023-06-22T00:41:29;10.13;;;7.55;;
15331;SDS011;7766;51.534;6.722;2023-06-22T00:42:30;8.30;;;6.70;;
15331;SDS011;7766;51.534;6.722;2023-06-22T00:43:31;10.05;;;8.05;;
15331;SDS011;7766;51.534;6.722;2023-06-22T00:44:32;8.45;;;7.40;;
15331;SDS011;7766;51.534;6.722;2023-06-22T00:45:33;11.40;;;7.05;;
15331;SDS011;7766;51.534;6.722;2023-06-22T00:46:34;11.23;;;7.70;;
15331;SDS011;7766;51.534;6.722;2023-06-22T00:47:35;12.30;;;7.72;;
15331;SDS011;7766;51.534;6.722;2023-06-22T00:48:37;7.88;;;7.07;;
15331;SDS011;7766;51.534;6.722;2023-06-22T00:49:44;12.25;;;7.60;;
15331;SDS011;7766;51.534;6.722;2023-06-22T00:50:46;9.57;;;7.28;;
15331;SDS011;7766;51.534;6.722;2023-06-22T00:51:50;13.27;;;8.02;;
15331;SDS011;7766;51.534;6.722;2023-06-22T00:52:53;12.13;;;7.20;;
15331;SDS011;7766;51.534;6.722;2023-06-22T00:53:56;8.75;;;7.40;;
15331;SDS011;7766;51.534;6.722;2023-06-22T00:54:58;9.90;;;7.22;;
15331;SDS011;7766;51.534;6.722;2023-06-22T00:56:02;9.88;;;7.07;;
15331;SDS011;7766;51.534;6.722;2023-06-22T00:57:04;9.27;;;7.32;;
15331;SDS011;7766;51.534;6.722;2023-06-22T00:58:08;8.50;;;6.78;;
15331;SDS011;7766;51.534;6.722;2023-06-22T00:59:12;9.23;;;7.40;;
15331;SDS011;7766;51.534;6.722;2023-06-22T01:00:17;12.07;;;7.75;;
15331;SDS011;7766;51.534;6.722;2023-06-22T01:01:19;10.07;;;7.28;;
15331;SDS011;7766;51.534;6.722;2023-06-22T01:02:23;9.93;;;7.15;;
15331;SDS011;7766;51.534;6.722;2023-06-22T01:03:24;8.43;;;6.50;;
15331;SDS011;7766;51.534;6.722;2023-06-22T01:04:34;11.30;;;7.65;;
15331;SDS011;7766;51.534;6.722;2023-06-22T01:05:36;10.68;;;7.43;;
15331;SDS011;7766;51.534;6.722;2023-06-22T01:06:47;8.85;;;6.53;;
15331;SDS011;7766;51.534;6.722;2023-06-22T01:08:00;12.35;;;8.02;;
15331;SDS011;7766;51.534;6.722;2023-06-22T01:09:19;10.05;;;7.65;;
15331;SDS011;7766;51.534;6.722;2023-06-22T01:11:48;10.70;;;7.95;;
15331;SDS011;7766;51.534;6.722;2023-06-22T01:12:55;9.30;;;8.00;;
15331;SDS011;7766;51.534;6.722;2023-06-22T01:14:27;11.38;;;8.85;;
15331;SDS011;7766;51.534;6.722;2023-06-22T01:15:39;8.85;;;7.95;;
15331;SDS011;7766;51.534;6.722;2023-06-22T01:16:49;8.98;;;8.07;;
15331;SDS011;7766;51.534;6.722;2023-06-22T01:17:53;10.68;;;8.52;;
15331;SDS011;7766;51.534;6.722;2023-06-22T01:19:00;8.80;;;7.03;;
15331;SDS011;7766;51.534;6.722;2023-06-22T01:20:09;10.73;;;8.48;;
15331;SDS011;7766;51.534;6.722;2023-06-22T01:21:14;10.75;;;9.00;;
15331;SDS011;7766;51.534;6.722;2023-06-22T01:22:18;10.93;;;9.43;;
15331;SDS011;7766;51.534;6.722;2023-06-22T01:23:31;11.50;;;9.35;;
15331;SDS011;7766;51.534;6.722;2023-06-22T01:24:51;9.10;;;7.82;;
15331;SDS011;7766;51.534;6.722;2023-06-22T01:26:22;9.25;;;8.30;;
15331;SDS011;7766;51.534;6.722;2023-06-22T01:27:39;12.73;;;8.07;;
15331;SDS011;7766;51.534;6.722;2023-06-22T01:29:00;12.00;;;8.57;;
15331;SDS011;7766;51.534;6.722;2023-06-22T01:30:04;11.95;;;8.13;;
15331;SDS011;7766;51.534;6.722;2023-06-22T01:31:06;9.63;;;8.68;;
15331;SDS011;7766;51.534;6.722;2023-06-22T01:32:08;9.93;;;8.15;;
15331;SDS011;7766;51.534;6.722;2023-06-22T01:33:11;9.35;;;7.60;;
15331;SDS011;7766;51.534;6.722;2023-06-22T01:34:14;9.73;;;7.53;;
15331;SDS011;7766;51.534;6.722;2023-06-22T01:35:16;9.55;;;7.70;;
15331;SDS011;7766;51.534;6.722;2023-06-22T01:36:19;11.88;;;8.07;;
15331;SDS011;7766;51.534;6.722;2023-06-22T01:37:21;10.43;;;7.68;;
15331;SDS011;7766;51.534;6.722;2023-06-22T01:38:22;12.13;;;8.05;;
15331;SDS011;7766;51.534;6.722;2023-06-22T01:39:24;7.90;;;7.07;;
15331;SDS011;7766;51.534;6.722;2023-06-22T01:40:26;9.90;;;7.70;;
15331;SDS011;7766;51.534;6.722;2023-06-22T01:41:28;9.40;;;7.32;;
15331;SDS011;7766;51.534;6.722;2023-06-22T01:42:31;9.57;;;7.97;;
15331;SDS011;7766;51.534;6.722;2023-06-22T01:43:33;10.18;;;7.88;;
15331;SDS011;7766;51.534;6.722;2023-06-22T01:44:35;8.50;;;7.60;;
15331;SDS011;7766;51.534;6.722;2023-06-22T01:45:37;12.07;;;8.82;;
15331;SDS011;7766;51.534;6.722;2023-06-22T01:46:38;10.05;;;8.55;;
15331;SDS011;7766;51.534;6.722;2023-06-22T01:47:40;8.13;;;7.28;;
15331;SDS011;7766;51.534;6.722;2023-06-22T01:48:41;12.57;;;8.93;;
15331;SDS011;7766;51.534;6.722;2023-06-22T01:49:43;10.10;;;8.82;;
15331;SDS011;7766;51.534;6.722;2023-06-22T01:50:44;10.95;;;8.02;;
15331;SDS011;7766;51.534;6.722;2023-06-22T01:51:46;8.90;;;8.00;;
15331;SDS011;7766;51.534;6.722;2023-06-22T01:52:47;10.73;;;8.93;;
15331;SDS011;7766;51.534;6.722;2023-06-22T01:53:47;14.73;;;9.60;;
15331;SDS011;7766;51.534;6.722;2023-06-22T01:54:49;10.93;;;8.05;;
15331;SDS011;7766;51.534;6.722;2023-06-22T01:55:50;11.48;;;9.20;;
15331;SDS011;7766;51.534;6.722;2023-06-22T01:56:51;12.35;;;9.50;;
15331;SDS011;7766;51.534;6.722;2023-06-22T01:57:52;12.15;;;9.68;;
15331;SDS011;7766;51.534;6.722;2023-06-22T01:59:00;10.45;;;8.95;;
15331;SDS011;7766;51.534;6.722;2023-06-22T02:00:21;11.80;;;8.50;;
15331;SDS011;7766;51.534;6.722;2023-06-22T02:01:28;11.13;;;9.32;;
15331;SDS011;7766;51.534;6.722;2023-06-22T02:03:47;12.10;;;8.90;;
15331;SDS011;7766;51.534;6.722;2023-06-22T02:04:57;11.88;;;8.80;;
15331;SDS011;7766;51.534;6.722;2023-06-22T02:06:04;9.30;;;8.32;;
15331;SDS011;7766;51.534;6.722;2023-06-22T02:07:12;11.25;;;9.27;;
15331;SDS011;7766;51.534;6.722;2023-06-22T02:08:21;9.88;;;7.60;;
15331;SDS011;7766;51.534;6.722;2023-06-22T02:09:29;11.38;;;7.95;;
15331;SDS011;7766;51.534;6.722;2023-06-22T02:10:32;8.98;;;7.60;;
15331;SDS011;7766;51.534;6.722;2023-06-22T02:11:36;8.30;;;7.38;;
15331;SDS011;7766;51.534;6.722;2023-06-22T02:12:38;8.38;;;7.00;;
15331;SDS011;7766;51.534;6.722;2023-06-22T02:13:40;10.60;;;7.35;;
15331;SDS011;7766;51.534;6.722;2023-06-22T02:14:43;8.88;;;7.43;;
15331;SDS011;7766;51.534;6.722;2023-06-22T02:15:46;8.82;;;7.72;;
15331;SDS011;7766;51.534;6.722;2023-06-22T02:16:48;12.45;;;9.00;;
15331;SDS011;7766;51.534;6.722;2023-06-22T02:17:50;11.50;;;9.45;;
15331;SDS011;7766;51.534;6.722;2023-06-22T02:18:51;10.40;;;8.40;;
15331;SDS011;7766;51.534;6.722;2023-06-22T02:19:52;11.10;;;9.35;;
15331;SDS011;7766;51.534;6.722;2023-06-22T02:20:53;15.05;;;9.20;;
15331;SDS011;7766;51.534;6.722;2023-06-22T02:21:54;10.45;;;9.27;;
15331;SDS011;7766;51.534;6.722;2023-06-22T02:22:55;10.93;;;8.38;;
15331;SDS011;7766;51.534;6.722;2023-06-22T02:23:56;10.30;;;9.30;;
15331;SDS011;7766;51.534;6.722;2023-06-22T02:24:58;11.55;;;8.98;;
15331;SDS011;7766;51.534;6.722;2023-06-22T02:25:59;11.40;;;8.50;;
15331;SDS011;7766;51.534;6.722;2023-06-22T02:27:01;10.73;;;8.68;;
15331;SDS011;7766;51.534;6.722;2023-06-22T02:28:02;12.75;;;8.63;;
15331;SDS011;7766;51.534;6.722;2023-06-22T02:29:04;10.63;;;9.20;;
15331;SDS011;7766;51.534;6.722;2023-06-22T02:30:06;9.43;;;8.43;;
15331;SDS011;7766;51.534;6.722;2023-06-22T02:31:08;10.07;;;9.10;;
15331;SDS011;7766;51.534;6.722;2023-06-22T02:32:08;9.45;;;8.45;;
15331;SDS011;7766;51.534;6.722;2023-06-22T02:33:10;10.75;;;9.63;;
15331;SDS011;7766;51.534;6.722;2023-06-22T02:34:11;10.00;;;7.93;;
15331;SDS011;7766;51.534;6.722;2023-06-22T02:35:17;14.55;;;9.30;;
15331;SDS011;7766;51.534;6.722;2023-06-22T02:36:18;10.65;;;9.50;;
15331;SDS011;7766;51.534;6.722;2023-06-22T02:37:21;10.40;;;9.10;;
15331;SDS011;7766;51.534;6.722;2023-06-22T02:38:25;11.15;;;8.77;;
15331;SDS011;7766;51.534;6.722;2023-06-22T02:39:26;12.02;;;9.32;;
15331;SDS011;7766;51.534;6.722;2023-06-22T02:40:27;9.05;;;8.07;;
15331;SDS011;7766;51.534;6.722;2023-06-22T02:41:29;9.52;;;8.13;;
15331;SDS011;7766;51.534;6.722;2023-06-22T02:42:30;11.80;;;9.77;;
15331;SDS011;7766;51.534;6.722;2023-06-22T02:43:31;11.10;;;9.18;;
15331;SDS011;7766;51.534;6.722;2023-06-22T02:44:32;15.88;;;9.50;;
15331;SDS011;7766;51.534;6.722;2023-06-22T02:45:33;9.75;;;8.70;;
15331;SDS011;7766;51.534;6.722;2023-06-22T02:46:35;10.32;;;8.85;;
15331;SDS011;7766;51.534;6.722;2023-06-22T02:47:36;11.10;;;9.57;;
15331;SDS011;7766;51.534;6.722;2023-06-22T02:48:37;12.80;;;9.05;;
15331;SDS011;7766;51.534;6.722;2023-06-22T02:49:38;11.25;;;9.98;;
15331;SDS011;7766;51.534;6.722;2023-06-22T02:50:39;10.32;;;8.68;;
15331;SDS011;7766;51.534;6.722;2023-06-22T02:51:41;11.25;;;8.63;;
15331;SDS011;7766;51.534;6.722;2023-06-22T02:52:45;10.40;;;9.35;;
15331;SDS011;7766;51.534;6.722;2023-06-22T02:53:46;10.73;;;9.63;;
15331;SDS011;7766;51.534;6.722;2023-06-22T02:54:47;12.65;;;10.00;;
15331;SDS011;7766;51.534;6.722;2023-06-22T02:55:48;11.32;;;10.07;;
15331;SDS011;7766;51.534;6.722;2023-06-22T02:56:49;10.63;;;9.48;;
15331;SDS011;7766;51.534;6.722;2023-06-22T02:57:50;10.50;;;9.40;;
15331;SDS011;7766;51.534;6.722;2023-06-22T02:58:52;10.90;;;9.60;;
15331;SDS011;7766;51.534;6.722;2023-06-22T02:59:53;12.38;;;9.48;;
15331;SDS011;7766;51.534;6.722;2023-06-22T03:00:55;11.13;;;9.98;;
15331;SDS011;7766;51.534;6.722;2023-06-22T03:01:56;11.45;;;10.15;;
15331;SDS011;7766;51.534;6.722;2023-06-22T03:02:57;11.20;;;9.65;;
15331;SDS011;7766;51.534;6.722;2023-06-22T03:03:58;13.48;;;9.77;;
15331;SDS011;7766;51.534;6.722;2023-06-22T03:04:59;15.63;;;11.13;;
15331;SDS011;7766;51.534;6.722;2023-06-22T03:06:01;11.70;;;9.70;;
15331;SDS011;7766;51.534;6.722;2023-06-22T03:07:02;12.15;;;10.25;;
15331;SDS011;7766;51.534;6.722;2023-06-22T03:08:03;14.20;;;11.15;;
15331;SDS011;7766;51.534;6.722;2023-06-22T03:09:04;10.35;;;7.90;;
15331;SDS011;7766;51.534;6.722;2023-06-22T03:10:06;12.68;;;10.13;;
15331;SDS011;7766;51.534;6.722;2023-06-22T03:11:11;11.30;;;9.60;;
15331;SDS011;7766;51.534;6.722;2023-06-22T03:12:12;12.20;;;9.95;;
15331;SDS011;7766;51.534;6.722;2023-06-22T03:13:13;12.32;;;10.25;;
15331;SDS011;7766;51.534;6.722;2023-06-22T03:14:14;12.75;;;10.77;;
15331;SDS011;7766;51.534;6.722;2023-06-22T03:15:14;12.18;;;10.88;;
15331;SDS011;7766;51.534;6.722;2023-06-22T03:16:17;13.82;;;10.63;;
15331;SDS011;7766;51.534;6.722;2023-06-22T03:17:18;11.35;;;9.85;;
15331;SDS011;7766;51.534;6.722;2023-06-22T03:18:19;10.57;;;9.50;;
15331;SDS011;7766;51.534;6.722;2023-06-22T03:19:22;13.25;;;10.65;;
15331;SDS011;7766;51.534;6.722;2023-06-22T03:20:23;12.80;;;8.85;;
15331;SDS011;7766;51.534;6.722;2023-06-22T03:21:27;11.40;;;9.68;;
15331;SDS011;7766;51.534;6.722;2023-06-22T03:22:29;11.85;;;10.68;;
15331;SDS011;7766;51.534;6.722;2023-06-22T03:23:30;12.13;;;10.00;;
15331;SDS011;7766;51.534;6.722;2023-06-22T03:24:31;10.30;;;9.20;;
15331;SDS011;7766;51.534;6.722;2023-06-22T03:25:32;10.95;;;9.20;;
15331;SDS011;7766;51.534;6.722;2023-06-22T03:26:34;14.65;;;10.35;;
15331;SDS011;7766;51.534;6.722;2023-06-22T03:27:36;13.43;;;10.07;;
15331;SDS011;7766;51.534;6.722;2023-06-22T03:28:37;12.00;;;10.02;;
15331;SDS011;7766;51.534;6.722;2023-06-22T03:29:38;11.02;;;9.57;;
15331;SDS011;7766;51.534;6.722;2023-06-22T03:30:39;11.85;;;10.63;;
15331;SDS011;7766;51.534;6.722;2023-06-22T03:31:40;10.93;;;9.45;;
15331;SDS011;7766;51.534;6.722;2023-06-22T03:32:41;10.82;;;9.63;;
15331;SDS011;7766;51.534;6.722;2023-06-22T03:33:43;10.43;;;9.32;;
15331;SDS011;7766;51.534;6.722;2023-06-22T03:34:44;12.90;;;10.88;;
15331;SDS011;7766;51.534;6.722;2023-06-22T03:35:48;11.57;;;10.38;;
15331;SDS011;7766;51.534;6.722;2023-06-22T03:36:50;11.07;;;9.52;;
15331;SDS011;7766;51.534;6.722;2023-06-22T03:37:51;12.40;;;10.95;;
15331;SDS011;7766;51.534;6.722;2023-06-22T03:38:52;12.27;;;10.40;;
15331;SDS011;7766;51.534;6.722;2023-06-22T03:39:53;14.85;;;11.75;;
15331;SDS011;7766;51.534;6.722;2023-06-22T03:40:53;12.50;;;10.43;;
15331;SDS011;7766;51.534;6.722;2023-06-22T03:41:54;11.27;;;10.25;;
15331;SDS011;7766;51.534;6.722;2023-06-22T03:42:55;13.27;;;10.32;;
15331;SDS011;7766;51.534;6.722;2023-06-22T03:43:56;11.70;;;10.50;;
15331;SDS011;7766;51.534;6.722;2023-06-22T03:44:57;13.88;;;11.88;;
15331;SDS011;7766;51.534;6.722;2023-06-22T03:45:58;13.45;;;10.73;;
15331;SDS011;7766;51.534;6.722;2023-06-22T03:46:59;13.23;;;11.82;;
15331;SDS011;7766;51.534;6.722;2023-06-22T03:48:02;12.52;;;10.85;;
15331;SDS011;7766;51.534;6.722;2023-06-22T03:49:03;19.10;;;11.90;;
15331;SDS011;7766;51.534;6.722;2023-06-22T03:50:04;13.35;;;11.20;;
15331;SDS011;7766;51.534;6.722;2023-06-22T03:51:06;14.60;;;10.68;;
15331;SDS011;7766;51.534;6.722;2023-06-22T03:52:07;15.93;;;12.27;;
15331;SDS011;7766;51.534;6.722;2023-06-22T03:53:08;12.52;;;11.23;;
15331;SDS011;7766;51.534;6.722;2023-06-22T03:54:10;14.60;;;11.57;;
15331;SDS011;7766;51.534;6.722;2023-06-22T03:55:11;17.90;;;12.65;;
15331;SDS011;7766;51.534;6.722;2023-06-22T03:56:12;13.18;;;10.98;;
15331;SDS011;7766;51.534;6.722;2023-06-22T03:57:13;12.45;;;10.80;;
15331;SDS011;7766;51.534;6.722;2023-06-22T03:58:14;12.90;;;11.30;;
15331;SDS011;7766;51.534;6.722;2023-06-22T03:59:15;12.73;;;11.43;;
15331;SDS011;7766;51.534;6.722;2023-06-22T04:00:16;13.35;;;10.43;;
15331;SDS011;7766;51.534;6.722;2023-06-22T04:01:17;11.82;;;9.40;;
15331;SDS011;7766;51.534;6.722;2023-06-22T04:02:18;14.13;;;11.82;;
15331;SDS011;7766;51.534;6.722;2023-06-22T04:03:19;17.58;;;13.32;;
15331;SDS011;7766;51.534;6.722;2023-06-22T04:04:20;12.13;;;10.23;;
15331;SDS011;7766;51.534;6.722;2023-06-22T04:05:21;13.30;;;11.32;;
15331;SDS011;7766;51.534;6.722;2023-06-22T04:06:24;13.05;;;11.48;;
15331;SDS011;7766;51.534;6.722;2023-06-22T04:07:25;15.52;;;10.90;;
15331;SDS011;7766;51.534;6.722;2023-06-22T04:08:26;13.18;;;10.98;;
15331;SDS011;7766;51.534;6.722;2023-06-22T04:09:26;13.23;;;11.82;;
15331;SDS011;7766;51.534;6.722;2023-06-22T04:10:27;13.18;;;11.30;;
15331;SDS011;7766;51.534;6.722;2023-06-22T04:11:28;14.02;;;12.00;;
15331;SDS011;7766;51.534;6.722;2023-06-22T04:12:29;14.73;;;12.75;;
15331;SDS011;7766;51.534;6.722;2023-06-22T04:13:30;16.85;;;11.57;;
15331;SDS011;7766;51.534;6.722;2023-06-22T04:14:31;14.38;;;11.48;;
15331;SDS011;7766;51.534;6.722;2023-06-22T04:15:32;13.07;;;11.77;;
15331;SDS011;7766;51.534;6.722;2023-06-22T04:16:33;13.25;;;10.98;;
15331;SDS011;7766;51.534;6.722;2023-06-22T04:17:34;15.68;;;11.38;;
15331;SDS011;7766;51.534;6.722;2023-06-22T04:18:35;17.08;;;12.18;;
15331;SDS011;7766;51.534;6.722;2023-06-22T04:19:36;12.88;;;11.50;;
15331;SDS011;7766;51.534;6.722;2023-06-22T04:20:37;15.07;;;11.23;;
15331;SDS011;7766;51.534;6.722;2023-06-22T04:21:38;13.18;;;11.77;;
15331;SDS011;7766;51.534;6.722;2023-06-22T04:22:39;14.13;;;10.55;;
15331;SDS011;7766;51.534;6.722;2023-06-22T04:23:40;13.07;;;11.73;;
15331;SDS011;7766;51.534;6.722;2023-06-22T04:24:41;13.77;;;12.38;;
15331;SDS011;7766;51.534;6.722;2023-06-22T04:25:42;14.57;;;11.85;;
15331;SDS011;7766;51.534;6.722;2023-06-22T04:26:43;13.77;;;12.13;;
15331;SDS011;7766;51.534;6.722;2023-06-22T04:27:45;12.43;;;11.20;;
15331;SDS011;7766;51.534;6.722;2023-06-22T04:28:47;13.15;;;10.90;;
15331;SDS011;7766;51.534;6.722;2023-06-22T04:29:55;12.38;;;11.13;;
15331;SDS011;7766;51.534;6.722;2023-06-22T04:30:56;12.60;;;11.30;;
15331;SDS011;7766;51.534;6.722;2023-06-22T04:31:58;12.27;;;11.07;;
15331;SDS011;7766;51.534;6.722;2023-06-22T04:33:03;14.15;;;12.63;;
15331;SDS011;7766;51.534;6.722;2023-06-22T04:34:04;13.40;;;11.07;;
15331;SDS011;7766;51.534;6.722;2023-06-22T04:35:06;13.38;;;11.95;;
15331;SDS011;7766;51.534;6.722;2023-06-22T04:36:07;14.00;;;12.00;;
15331;SDS011;7766;51.534;6.722;2023-06-22T04:37:08;12.95;;;11.60;;
15331;SDS011;7766;51.534;6.722;2023-06-22T04:38:15;14.18;;;11.88;;
15331;SDS011;7766;51.534;6.722;2023-06-22T04:39:16;13.98;;;11.95;;
15331;SDS011;7766;51.534;6.722;2023-06-22T04:40:18;13.25;;;10.70;;
15331;SDS011;7766;51.534;6.722;2023-06-22T04:41:20;14.02;;;12.20;;
15331;SDS011;7766;51.534;6.722;2023-06-22T04:42:25;13.20;;;11.75;;
15331;SDS011;7766;51.534;6.722;2023-06-22T04:43:26;11.88;;;9.63;;
15331;SDS011;7766;51.534;6.722;2023-06-22T04:44:30;12.32;;;10.90;;
15331;SDS011;7766;51.534;6.722;2023-06-22T04:45:31;13.75;;;11.98;;
15331;SDS011;7766;51.534;6.722;2023-06-22T04:46:33;13.70;;;11.13;;
15331;SDS011;7766;51.534;6.722;2023-06-22T04:47:37;13.52;;;11.18;;
15331;SDS011;7766;51.534;6.722;2023-06-22T04:48:39;13.10;;;10.27;;
15331;SDS011;7766;51.534;6.722;2023-06-22T04:49:40;11.40;;;10.20;;
15331;SDS011;7766;51.534;6.722;2023-06-22T04:50:43;12.55;;;11.25;;
15331;SDS011;7766;51.534;6.722;2023-06-22T04:51:44;13.32;;;10.70;;
15331;SDS011;7766;51.534;6.722;2023-06-22T04:52:45;11.93;;;10.48;;
15331;SDS011;7766;51.534;6.722;2023-06-22T04:53:46;18.17;;;13.02;;
15331;SDS011;7766;51.534;6.722;2023-06-22T04:54:47;12.70;;;11.43;;
15331;SDS011;7766;51.534;6.722;2023-06-22T04:55:50;13.55;;;11.40;;
15331;SDS011;7766;51.534;6.722;2023-06-22T04:56:53;12.52;;;11.07;;
15331;SDS011;7766;51.534;6.722;2023-06-22T04:57:56;15.27;;;12.80;;
15331;SDS011;7766;51.534;6.722;2023-06-22T04:59:04;13.55;;;10.88;;
15331;SDS011;7766;51.534;6.722;2023-06-22T05:00:05;15.57;;;12.77;;
15331;SDS011;7766;51.534;6.722;2023-06-22T05:01:13;15.90;;;12.85;;
15331;SDS011;7766;51.534;6.722;2023-06-22T05:02:14;14.07;;;11.93;;
15331;SDS011;7766;51.534;6.722;2023-06-22T05:03:15;13.70;;;10.80;;
15331;SDS011;7766;51.534;6.722;2023-06-22T05:04:18;14.23;;;11.32;;
15331;SDS011;7766;51.534;6.722;2023-06-22T05:05:19;13.45;;;11.63;;
15331;SDS011;7766;51.534;6.722;2023-06-22T05:06:21;15.25;;;12.98;;
15331;SDS011;7766;51.534;6.722;2023-06-22T05:07:24;15.00;;;11.55;;
15331;SDS011;7766;51.534;6.722;2023-06-22T05:08:25;13.77;;;10.82;;
15331;SDS011;7766;51.534;6.722;2023-06-22T05:09:29;15.80;;;12.13;;
15331;SDS011;7766;51.534;6.722;2023-06-22T05:10:30;13.05;;;11.55;;
15331;SDS011;7766;51.534;6.722;2023-06-22T05:11:31;13.48;;;11.80;;
15331;SDS011;7766;51.534;6.722;2023-06-22T05:12:32;12.90;;;11.13;;
15331;SDS011;7766;51.534;6.722;2023-06-22T05:13:34;12.77;;;11.38;;
15331;SDS011;7766;51.534;6.722;2023-06-22T05:14:35;15.82;;;12.18;;
15331;SDS011;7766;51.534;6.722;2023-06-22T05:15:36;14.55;;;12.35;;
15331;SDS011;7766;51.534;6.722;2023-06-22T05:16:41;14.52;;;11.57;;
15331;SDS011;7766;51.534;6.722;2023-06-22T05:17:42;18.60;;;12.35;;
15331;SDS011;7766;51.534;6.722;2023-06-22T05:18:45;15.75;;;12.45;;
15331;SDS011;7766;51.534;6.722;2023-06-22T05:19:46;14.57;;;11.50;;
15331;SDS011;7766;51.534;6.722;2023-06-22T05:20:50;13.93;;;12.15;;
15331;SDS011;7766;51.534;6.722;2023-06-22T05:21:51;14.32;;;11.70;;
15331;SDS011;7766;51.534;6.722;2023-06-22T05:22:52;13.45;;;12.05;;
15331;SDS011;7766;51.534;6.722;2023-06-22T05:23:53;13.13;;;11.43;;
15331;SDS011;7766;51.534;6.722;2023-06-22T05:24:56;15.70;;;11.35;;
15331;SDS011;7766;51.534;6.722;2023-06-22T05:25:57;13.27;;;11.88;;
15331;SDS011;7766;51.534;6.722;2023-06-22T05:26:58;14.50;;;11.63;;
15331;SDS011;7766;51.534;6.722;2023-06-22T05:27:59;12.63;;;11.30;;
15331;SDS011;7766;51.534;6.722;2023-06-22T05:29:00;12.75;;;11.35;;
15331;SDS011;7766;51.534;6.722;2023-06-22T05:30:02;14.23;;;11.70;;
15331;SDS011;7766;51.534;6.722;2023-06-22T05:31:03;14.77;;;12.18;;
15331;SDS011;7766;51.534;6.722;2023-06-22T05:32:05;17.20;;;12.73;;
15331;SDS011;7766;51.534;6.722;2023-06-22T05:33:06;13.00;;;11.60;;
15331;SDS011;7766;51.534;6.722;2023-06-22T05:34:07;13.18;;;11.68;;
15331;SDS011;7766;51.534;6.722;2023-06-22T05:35:08;13.75;;;11.68;;
15331;SDS011;7766;51.534;6.722;2023-06-22T05:36:09;12.57;;;10.95;;
15331;SDS011;7766;51.534;6.722;2023-06-22T05:37:10;14.52;;;11.52;;
15331;SDS011;7766;51.534;6.722;2023-06-22T05:38:12;13.68;;;11.43;;
15331;SDS011;7766;51.534;6.722;2023-06-22T05:39:14;14.10;;;12.50;;
15331;SDS011;7766;51.534;6.722;2023-06-22T05:40:15;11.75;;;10.30;;
15331;SDS011;7766;51.534;6.722;2023-06-22T05:41:16;13.65;;;11.50;;
15331;SDS011;7766;51.534;6.722;2023-06-22T05:42:17;13.90;;;12.27;;
15331;SDS011;7766;51.534;6.722;2023-06-22T05:43:18;20.92;;;12.02;;
15331;SDS011;7766;51.534;6.722;2023-06-22T05:44:19;14.20;;;12.20;;
15331;SDS011;7766;51.534;6.722;2023-06-22T05:45:20;13.23;;;11.93;;
15331;SDS011;7766;51.534;6.722;2023-06-22T05:46:22;15.07;;;12.15;;
15331;SDS011;7766;51.534;6.722;2023-06-22T05:47:23;19.38;;;12.57;;
15331;SDS011;7766;51.534;6.722;2023-06-22T05:48:25;14.13;;;12.18;;
15331;SDS011;7766;51.534;6.722;2023-06-22T05:49:26;15.57;;;12.25;;
15331;SDS011;7766;51.534;6.722;2023-06-22T05:50:32;16.25;;;11.98;;
15331;SDS011;7766;51.534;6.722;2023-06-22T05:51:33;15.35;;;12.82;;
15331;SDS011;7766;51.534;6.722;2023-06-22T05:52:34;14.45;;;11.55;;
15331;SDS011;7766;51.534;6.722;2023-06-22T05:53:35;18.95;;;12.43;;
15331;SDS011;7766;51.534;6.722;2023-06-22T05:54:36;16.75;;;12.73;;
15331;SDS011;7766;51.534;6.722;2023-06-22T05:55:39;13.35;;;11.95;;
15331;SDS011;7766;51.534;6.722;2023-06-22T05:56:40;13.73;;;12.25;;
15331;SDS011;7766;51.534;6.722;2023-06-22T05:57:41;16.52;;;12.80;;
15331;SDS011;7766;51.534;6.722;2023-06-22T05:58:42;15.95;;;12.55;;
15331;SDS011;7766;51.534;6.722;2023-06-22T05:59:43;16.20;;;12.80;;
15331;SDS011;7766;51.534;6.722;2023-06-22T06:00:44;15.68;;;11.88;;
15331;SDS011;7766;51.534;6.722;2023-06-22T06:01:46;13.02;;;11.45;;
15331;SDS011;7766;51.534;6.722;2023-06-22T06:02:50;15.13;;;12.13;;
15331;SDS011;7766;51.534;6.722;2023-06-22T06:03:50;13.45;;;12.02;;
15331;SDS011;7766;51.534;6.722;2023-06-22T06:04:52;13.10;;;11.85;;
15331;SDS011;7766;51.534;6.722;2023-06-22T06:05:54;15.45;;;12.77;;
15331;SDS011;7766;51.534;6.722;2023-06-22T06:06:55;15.07;;;12.60;;
15331;SDS011;7766;51.534;6.722;2023-06-22T06:07:56;17.73;;;13.65;;
15331;SDS011;7766;51.534;6.722;2023-06-22T06:08:57;15.20;;;12.10;;
15331;SDS011;7766;51.534;6.722;2023-06-22T06:09:59;14.10;;;12.32;;
15331;SDS011;7766;51.534;6.722;2023-06-22T06:11:00;14.80;;;12.35;;
15331;SDS011;7766;51.534;6.722;2023-06-22T06:12:02;16.80;;;13.00;;
15331;SDS011;7766;51.534;6.722;2023-06-22T06:13:04;15.38;;;13.88;;
15331;SDS011;7766;51.534;6.722;2023-06-22T06:14:05;14.82;;;13.05;;
15331;SDS011;7766;51.534;6.722;2023-06-22T06:15:06;16.38;;;13.40;;
15331;SDS011;7766;51.534;6.722;2023-06-22T06:16:07;15.15;;;12.50;;
15331;SDS011;7766;51.534;6.722;2023-06-22T06:17:08;14.63;;;12.57;;